Terminal Aerodrome Forecast
Issued by NWS

Home | Current Version | Previous Version | Graphics & Text | Print | Product List | Glossary On
Versions: 1 2 3 4 5 6 7 8 9 10 11 12 13 14 15 16 17 18 19 20 21 22
000
FTUS43 KBIS 250500
TAFJMS
TAF
KJMS 250534Z 2506/2606 28019G28KT P6SM OVC015
      TEMPO 2507/2508 30024G33KT 2SM -SN BKN008 OVC011
     FM250800 31025G34KT 1SM -SN SCT007 OVC012
     FM251000 32026G34KT 5SM -SHSN OVC016
     FM251200 32025G34KT P6SM VCSH OVC010
     FM251500 32027G35KT P6SM SCT012 BKN035
     FM252200 33023G28KT P6SM SCT050
     FM260100 33014KT P6SM SCT045 SCT060=

USA.gov is the U.S. government's official web portal to all federal, state and local government web resources and services.